createdAt,value
2022-09-10T00:00:34.530Z,15.19
2022-09-10T00:01:34.548Z,15.09
2022-09-10T00:02:34.517Z,15.19
2022-09-10T00:03:34.463Z,15.21
2022-09-10T00:04:34.443Z,15.12
2022-09-10T00:05:34.439Z,15.15
2022-09-10T00:06:34.445Z,15.06
2022-09-10T00:07:34.380Z,15.20
2022-09-10T00:08:34.471Z,15.15
2022-09-10T00:09:34.340Z,15.08
2022-09-10T00:10:34.314Z,15.20
2022-09-10T00:11:34.301Z,15.23
2022-09-10T00:12:34.276Z,15.21
2022-09-10T00:13:34.255Z,15.24
2022-09-10T00:14:34.578Z,15.17
2022-09-10T00:15:34.370Z,15.21
2022-09-10T00:16:34.318Z,15.20
2022-09-10T00:17:34.169Z,15.15
2022-09-10T00:18:34.144Z,15.26
2022-09-10T00:19:34.121Z,15.28
2022-09-10T00:20:34.119Z,15.30
2022-09-10T00:21:34.092Z,15.30
2022-09-10T00:22:34.056Z,15.28
2022-09-10T00:23:34.031Z,15.31
2022-09-10T00:24:34.022Z,15.36
2022-09-10T00:25:33.993Z,15.33
2022-09-10T00:26:33.971Z,15.28
2022-09-10T00:27:33.962Z,15.38
2022-09-10T00:28:33.926Z,15.30
2022-09-10T00:29:33.906Z,15.27
2022-09-10T00:30:33.891Z,15.27
2022-09-10T00:31:33.964Z,15.30
2022-09-10T00:32:33.851Z,15.27
2022-09-10T00:33:33.846Z,15.17
2022-09-10T00:34:33.801Z,15.31
2022-09-10T00:35:33.782Z,15.35
2022-09-10T00:36:33.767Z,15.27
2022-09-10T00:37:33.753Z,15.33
2022-09-10T00:38:33.729Z,15.30
2022-09-10T00:39:33.718Z,15.24
2022-09-10T00:40:33.676Z,15.27
2022-09-10T00:41:33.649Z,15.27
2022-09-10T00:42:33.646Z,15.27
2022-09-10T00:43:33.640Z,15.26
2022-09-10T00:44:35.661Z,15.30
2022-09-10T00:45:33.600Z,15.28
2022-09-10T00:46:33.566Z,15.11
2022-09-10T00:47:33.526Z,15.24
2022-09-10T00:48:33.508Z,15.23
2022-09-10T00:49:33.503Z,15.20
2022-09-10T00:50:33.462Z,15.09
2022-09-10T00:51:33.443Z,15.05
2022-09-10T00:52:37.570Z,15.23
2022-09-10T00:53:33.419Z,15.20
2022-09-10T00:54:33.378Z,15.20
2022-09-10T00:55:33.366Z,15.12
2022-09-10T00:56:33.340Z,15.20
2022-09-10T00:57:33.318Z,15.30
2022-09-10T00:58:33.307Z,15.27
2022-09-10T00:59:33.270Z,15.27
2022-09-10T01:00:33.324Z,15.39
2022-09-10T01:01:33.226Z,15.36
2022-09-10T01:02:33.211Z,15.36
2022-09-10T01:03:33.206Z,15.38
2022-09-10T01:04:33.164Z,15.36
2022-09-10T01:05:33.157Z,15.33
2022-09-10T01:06:33.131Z,15.43
2022-09-10T01:07:33.114Z,15.41
2022-09-10T01:08:33.082Z,15.41
2022-09-10T01:09:33.062Z,15.45
2022-09-10T01:10:33.037Z,15.48
2022-09-10T01:11:34.742Z,15.45
2022-09-10T01:12:35.849Z,15.42
2022-09-10T01:13:32.988Z,15.45
2022-09-10T01:14:32.956Z,15.51
2022-09-10T01:15:32.968Z,15.51
2022-09-10T01:16:32.979Z,15.42
2022-09-10T01:17:32.901Z,15.46
2022-09-10T01:18:32.877Z,15.46
2022-09-10T01:19:32.873Z,15.46
2022-09-10T01:20:32.831Z,15.43
2022-09-10T01:21:32.808Z,15.51
2022-09-10T01:22:32.807Z,15.52
2022-09-10T01:23:32.766Z,15.54
2022-09-10T01:24:32.745Z,15.54
2022-09-10T01:25:32.726Z,15.54
2022-09-10T01:26:32.709Z,15.51
2022-09-10T01:27:32.682Z,15.54
2022-09-10T01:28:32.662Z,15.51
2022-09-10T01:29:32.667Z,15.59
2022-09-10T01:30:32.626Z,15.57
2022-09-10T01:31:32.640Z,15.64
2022-09-10T01:32:32.581Z,15.67
2022-09-10T01:33:32.561Z,15.68
2022-09-10T01:34:32.532Z,15.67
2022-09-10T01:35:32.520Z,15.75
2022-09-10T01:36:32.492Z,15.70
2022-09-10T01:37:32.466Z,15.79
2022-09-10T01:38:32.474Z,15.67
2022-09-10T01:39:32.478Z,15.70
2022-09-10T01:40:32.454Z,15.70
2022-09-10T01:41:32.400Z,15.70
2022-09-10T01:42:32.371Z,15.74
2022-09-10T01:43:32.361Z,15.64
2022-09-10T01:44:32.332Z,15.68
2022-09-10T01:45:32.381Z,15.70
2022-09-10T01:46:32.281Z,15.76
2022-09-10T01:47:32.254Z,15.76
2022-09-10T01:48:32.237Z,15.68
2022-09-10T01:49:32.221Z,15.68
2022-09-10T01:50:32.198Z,15.78
2022-09-10T01:51:32.180Z,15.76
2022-09-10T01:52:32.157Z,15.78
2022-09-10T01:53:32.134Z,15.81
2022-09-10T01:54:32.118Z,15.76
2022-09-10T01:55:32.095Z,15.76
2022-09-10T01:56:32.075Z,15.82
2022-09-10T01:57:32.052Z,15.79
2022-09-10T01:58:32.073Z,15.84
2022-09-10T01:59:32.017Z,15.79
2022-09-10T02:00:31.989Z,15.76
2022-09-10T02:01:31.964Z,15.81
2022-09-10T02:02:31.948Z,15.79
2022-09-10T02:03:31.929Z,15.88
2022-09-10T02:04:31.905Z,15.78
2022-09-10T02:05:31.890Z,15.88
2022-09-10T02:06:31.868Z,15.88
2022-09-10T02:07:31.867Z,15.89
2022-09-10T02:08:31.910Z,15.94
2022-09-10T02:09:31.819Z,15.81
2022-09-10T02:10:31.783Z,15.81
2022-09-10T02:11:31.756Z,15.88
2022-09-10T02:12:31.741Z,15.81
2022-09-10T02:13:31.716Z,15.85
2022-09-10T02:15:31.680Z,15.79
2022-09-10T02:16:31.705Z,15.81
2022-09-10T02:17:31.701Z,15.82
2022-09-10T02:18:31.655Z,15.78
2022-09-10T02:19:31.597Z,15.79
2022-09-10T02:20:31.578Z,15.79
2022-09-10T02:21:31.552Z,15.81
2022-09-10T02:22:31.535Z,15.79
2022-09-10T02:23:31.520Z,15.81
2022-09-10T02:24:31.496Z,15.89
2022-09-10T02:25:31.469Z,15.86
2022-09-10T02:26:31.455Z,15.88
2022-09-10T02:27:31.428Z,15.84
2022-09-10T02:28:31.471Z,15.79
2022-09-10T02:29:31.398Z,15.78
2022-09-10T02:30:31.379Z,15.82
2022-09-10T02:31:31.377Z,15.79
2022-09-10T02:32:31.335Z,15.78
2022-09-10T02:33:31.305Z,15.81
2022-09-10T02:34:31.287Z,15.61
2022-09-10T02:35:31.262Z,15.70
2022-09-10T02:36:31.243Z,15.63
2022-09-10T02:37:31.227Z,15.54
2022-09-10T02:38:31.241Z,15.57
2022-09-10T02:39:31.179Z,15.56
2022-09-10T02:40:31.160Z,15.56
2022-09-10T02:41:31.137Z,15.59
2022-09-10T02:42:31.119Z,15.51
2022-09-10T02:43:31.099Z,15.42
2022-09-10T02:44:31.082Z,15.46
2022-09-10T02:45:31.131Z,15.45
2022-09-10T02:46:31.033Z,15.42
2022-09-10T02:47:31.022Z,15.43
2022-09-10T02:48:31.268Z,15.36
2022-09-10T02:49:30.970Z,15.39
2022-09-10T02:50:30.953Z,15.42
2022-09-10T02:51:30.924Z,15.35
2022-09-10T02:52:30.904Z,15.36
2022-09-10T02:53:30.890Z,15.33
2022-09-10T02:54:30.864Z,15.38
2022-09-10T02:55:30.845Z,15.31
2022-09-10T02:56:30.832Z,15.42
2022-09-10T02:57:30.798Z,15.46
2022-09-10T02:58:30.809Z,15.41
2022-09-10T02:59:30.757Z,15.43
2022-09-10T03:00:30.738Z,15.43
2022-09-10T03:01:30.743Z,15.41
2022-09-10T03:02:30.710Z,15.45
2022-09-10T03:03:30.673Z,15.42
2022-09-10T03:04:30.668Z,15.41
2022-09-10T03:05:30.683Z,15.42
2022-09-10T03:06:30.631Z,15.49
2022-09-10T03:07:30.596Z,15.45
2022-09-10T03:08:30.604Z,15.48
2022-09-10T03:09:30.548Z,15.45
2022-09-10T03:10:30.531Z,15.45
2022-09-10T03:11:30.524Z,15.43
2022-09-10T03:12:30.483Z,15.46
2022-09-10T03:13:30.501Z,15.39
2022-09-10T03:14:30.449Z,15.48
2022-09-10T03:15:30.459Z,15.43
2022-09-10T03:16:30.433Z,15.41
2022-09-10T03:17:30.393Z,15.49
2022-09-10T03:18:30.481Z,15.48
2022-09-10T03:19:30.349Z,15.45
2022-09-10T03:20:30.328Z,15.43
2022-09-10T03:21:30.301Z,15.43
2022-09-10T03:22:30.275Z,15.42
2022-09-10T03:23:30.259Z,15.49
2022-09-10T03:24:30.244Z,15.46
2022-09-10T03:25:30.219Z,15.51
2022-09-10T03:26:30.194Z,15.48
2022-09-10T03:27:30.170Z,15.59
2022-09-10T03:28:30.159Z,15.57
2022-09-10T03:29:30.151Z,15.59
2022-09-10T03:30:30.120Z,15.51
2022-09-10T03:31:30.153Z,15.57
2022-09-10T03:32:30.108Z,15.56
2022-09-10T03:33:30.051Z,15.60
2022-09-10T03:34:30.027Z,15.57
2022-09-10T03:35:30.006Z,15.52
2022-09-10T03:36:29.986Z,15.60
2022-09-10T03:37:29.974Z,15.56
2022-09-10T03:38:29.944Z,15.63
2022-09-10T03:39:29.968Z,15.60
2022-09-10T03:40:29.908Z,15.64
2022-09-10T03:41:29.883Z,15.70
2022-09-10T03:42:29.887Z,15.74
2022-09-10T03:43:29.843Z,15.67
2022-09-10T03:44:29.847Z,15.74
2022-09-10T03:45:29.834Z,15.76
2022-09-10T03:46:29.789Z,15.79
2022-09-10T03:47:29.757Z,15.68
2022-09-10T03:48:29.790Z,15.79
2022-09-10T03:49:29.720Z,15.78
2022-09-10T03:50:29.725Z,15.75
2022-09-10T03:51:29.713Z,15.76
2022-09-10T03:52:29.653Z,15.84
2022-09-10T03:53:29.660Z,15.78
2022-09-10T03:54:29.627Z,15.82
2022-09-10T03:55:29.597Z,15.79
2022-09-10T03:56:29.569Z,15.81
2022-09-10T03:57:29.545Z,15.79
2022-09-10T03:58:29.547Z,15.79
2022-09-10T03:59:29.501Z,15.89
2022-09-10T04:00:29.501Z,15.85
2022-09-10T04:01:29.516Z,15.78
2022-09-10T04:02:29.529Z,15.86
2022-09-10T04:03:29.428Z,15.88
2022-09-10T04:04:29.404Z,15.85
2022-09-10T04:05:29.390Z,15.86
2022-09-10T04:06:29.366Z,15.86
2022-09-10T04:07:29.344Z,15.86
2022-09-10T04:08:29.430Z,15.86
2022-09-10T04:09:29.298Z,15.97
2022-09-10T04:10:29.277Z,15.96
2022-09-10T04:11:29.258Z,16.00
2022-09-10T04:12:29.242Z,15.89
2022-09-10T04:13:29.224Z,15.86
2022-09-10T04:14:29.202Z,15.88
2022-09-10T04:15:29.180Z,15.99
2022-09-10T04:16:29.199Z,15.92
2022-09-10T04:17:29.136Z,16.01
2022-09-10T04:18:29.147Z,15.88
2022-09-10T04:19:29.098Z,15.92
2022-09-10T04:20:29.072Z,16.00
2022-09-10T04:21:29.053Z,15.92
2022-09-10T04:22:29.048Z,15.85
2022-09-10T04:23:29.014Z,15.89
2022-09-10T04:24:29.002Z,15.88
2022-09-10T04:25:28.972Z,15.88
2022-09-10T04:26:28.963Z,15.94
2022-09-10T04:27:28.932Z,15.94
2022-09-10T04:28:28.938Z,15.88
2022-09-10T04:29:28.891Z,15.96
2022-09-10T04:30:28.871Z,15.92
2022-09-10T04:31:28.889Z,15.94
2022-09-10T04:32:28.890Z,15.88
2022-09-10T04:33:28.805Z,15.93
2022-09-10T04:34:28.788Z,15.97
2022-09-10T04:35:28.775Z,15.92
2022-09-10T04:36:28.749Z,15.92
2022-09-10T04:37:28.733Z,15.96
2022-09-10T04:38:28.706Z,15.89
2022-09-10T04:39:28.680Z,15.93
2022-09-10T04:40:28.664Z,15.96
2022-09-10T04:41:28.670Z,15.92
2022-09-10T04:42:28.624Z,15.92
2022-09-10T04:43:28.605Z,16.01
2022-09-10T04:44:28.586Z,15.86
2022-09-10T04:45:28.629Z,16.03
2022-09-10T04:46:28.542Z,15.93
2022-09-10T04:47:28.523Z,15.89
2022-09-10T04:48:28.505Z,15.93
2022-09-10T04:49:28.483Z,15.94
2022-09-10T04:50:37.253Z,15.85
2022-09-10T04:52:21.880Z,15.84
2022-09-10T04:53:21.868Z,16.00
2022-09-10T04:54:21.773Z,15.89
2022-09-10T04:55:21.781Z,15.92
2022-09-10T04:56:21.760Z,15.89
2022-09-10T04:57:21.805Z,15.89
2022-09-10T04:58:21.699Z,15.99
2022-09-10T04:59:21.683Z,15.99
2022-09-10T05:00:21.648Z,16.00
2022-09-10T05:01:21.641Z,15.96
2022-09-10T05:02:21.636Z,15.99
2022-09-10T05:03:21.602Z,16.00
2022-09-10T05:04:21.572Z,16.04
2022-09-10T05:05:21.545Z,16.04
2022-09-10T05:06:21.529Z,16.06
2022-09-10T05:07:21.509Z,16.06
2022-09-10T05:08:21.488Z,16.06
2022-09-10T05:09:21.500Z,16.04
2022-09-10T05:10:21.449Z,16.06
2022-09-10T05:11:21.421Z,16.01
2022-09-10T05:12:21.398Z,16.04
2022-09-10T05:13:21.387Z,16.07
2022-09-10T05:14:21.368Z,16.07
2022-09-10T05:15:21.427Z,16.01
2022-09-10T05:16:21.411Z,16.03
2022-09-10T05:17:21.298Z,16.04
2022-09-10T05:18:21.276Z,16.07
2022-09-10T05:19:21.266Z,16.01
2022-09-10T05:20:21.240Z,16.03
2022-09-10T05:21:21.229Z,16.04
2022-09-10T05:22:21.200Z,15.99
2022-09-10T05:23:21.177Z,16.09
2022-09-10T05:24:21.156Z,16.01
2022-09-10T05:25:21.188Z,16.03
2022-09-10T05:26:21.121Z,16.01
2022-09-10T05:27:21.093Z,15.99
2022-09-10T05:28:21.106Z,16.03
2022-09-10T05:29:21.058Z,16.01
2022-09-10T05:30:21.043Z,16.03
2022-09-10T05:31:21.032Z,15.88
2022-09-10T05:32:20.993Z,15.94
2022-09-10T05:33:20.975Z,15.99
2022-09-10T05:34:20.966Z,16.01
2022-09-10T05:35:20.975Z,15.96
2022-09-10T05:36:20.920Z,15.99
2022-09-10T05:37:20.890Z,15.97
2022-09-10T05:38:20.881Z,15.86
2022-09-10T05:39:20.993Z,16.01
2022-09-10T05:40:20.832Z,15.92
2022-09-10T05:41:20.829Z,15.88
2022-09-10T05:42:20.800Z,15.93
2022-09-10T05:43:20.784Z,15.96
2022-09-10T05:45:20.741Z,16.00
2022-09-10T05:46:20.731Z,15.89
2022-09-10T05:47:20.682Z,16.00
2022-09-10T05:48:20.661Z,16.07
2022-09-10T05:49:20.648Z,15.84
2022-09-10T05:50:20.629Z,15.86
2022-09-10T05:51:20.615Z,15.88
2022-09-10T05:52:20.587Z,16.03
2022-09-10T05:53:20.576Z,16.00
2022-09-10T05:54:20.539Z,15.97
2022-09-10T05:55:20.518Z,16.03
2022-09-10T05:56:20.538Z,15.94
2022-09-10T05:57:20.476Z,15.99
2022-09-10T05:58:20.456Z,16.03
2022-09-10T05:59:20.445Z,16.04
2022-09-10T06:00:20.411Z,16.01
2022-09-10T06:01:20.395Z,16.06
2022-09-10T06:02:23.932Z,16.03
2022-09-10T06:03:20.448Z,16.09
2022-09-10T06:04:20.335Z,16.07
2022-09-10T06:05:20.317Z,16.15
2022-09-10T06:06:20.355Z,16.12
2022-09-10T06:07:20.272Z,16.09
2022-09-10T06:08:20.256Z,16.12
2022-09-10T06:09:20.225Z,16.09
2022-09-10T06:10:20.215Z,16.14
2022-09-10T06:11:20.184Z,16.20
2022-09-10T06:12:20.183Z,16.12
2022-09-10T06:13:20.151Z,16.23
2022-09-10T06:14:20.131Z,16.26
2022-09-10T06:15:20.106Z,16.37
2022-09-10T06:16:20.184Z,16.40
2022-09-10T06:17:20.099Z,16.31
2022-09-10T06:18:20.067Z,16.34
2022-09-10T06:19:20.077Z,16.38
2022-09-10T06:20:20.052Z,16.30
2022-09-10T06:21:19.986Z,16.37
2022-09-10T06:22:22.899Z,16.42
2022-09-10T06:23:19.957Z,16.38
2022-09-10T06:24:19.944Z,16.38
2022-09-10T06:25:19.911Z,16.41
2022-09-10T06:26:19.897Z,16.45
2022-09-10T06:27:19.885Z,16.38
2022-09-10T06:28:19.841Z,16.40
2022-09-10T06:29:19.826Z,16.30
2022-09-10T06:30:19.809Z,16.38
2022-09-10T06:31:19.808Z,16.35
2022-09-10T06:32:19.763Z,16.37
2022-09-10T06:33:19.777Z,16.35
2022-09-10T06:34:19.739Z,16.41
2022-09-10T06:35:19.715Z,16.31
2022-09-10T06:36:19.691Z,16.18
2022-09-10T06:37:19.672Z,16.26
2022-09-10T06:38:19.645Z,16.25
2022-09-10T06:39:19.628Z,16.18
2022-09-10T06:40:19.641Z,16.23
2022-09-10T06:41:19.603Z,16.25
2022-09-10T06:42:19.582Z,16.06
2022-09-10T06:43:19.578Z,16.25
2022-09-10T06:44:19.562Z,16.18
2022-09-10T06:45:19.540Z,16.15
2022-09-10T06:46:54.956Z,16.15
2022-09-10T06:48:06.435Z,16.22
2022-09-10T06:48:38.386Z,16.22
2022-09-10T06:49:19.430Z,16.23
2022-09-10T06:50:19.410Z,16.22
2022-09-10T06:51:19.383Z,16.23
2022-09-10T06:52:19.370Z,16.27
2022-09-10T06:53:19.344Z,16.09
2022-09-10T06:54:19.325Z,16.07
2022-09-10T06:55:19.302Z,16.07
2022-09-10T06:56:19.287Z,16.11
2022-09-10T06:57:19.268Z,16.03
2022-09-10T06:58:19.247Z,16.07
2022-09-10T06:59:19.219Z,16.06
2022-09-10T07:00:19.231Z,16.06
2022-09-10T07:01:19.245Z,16.03
2022-09-10T07:02:19.268Z,16.06
2022-09-10T07:03:19.150Z,16.03
2022-09-10T07:04:19.138Z,16.03
2022-09-10T07:05:19.106Z,16.09
2022-09-10T07:06:19.082Z,16.06
2022-09-10T07:07:19.058Z,16.01
2022-09-10T07:08:19.036Z,16.01
2022-09-10T07:09:19.019Z,16.06
2022-09-10T07:10:18.998Z,16.04
2022-09-10T07:11:18.977Z,16.11
2022-09-10T07:12:18.956Z,16.12
2022-09-10T07:13:18.946Z,16.06
2022-09-10T07:14:18.957Z,16.14
2022-09-10T07:15:18.958Z,16.07
2022-09-10T07:16:18.889Z,16.14
2022-09-10T07:17:18.855Z,16.16
2022-09-10T07:18:18.852Z,16.30
2022-09-10T07:19:18.827Z,16.22
2022-09-10T07:20:18.826Z,16.18
2022-09-10T07:21:18.786Z,16.20
2022-09-10T07:22:18.758Z,16.20
2022-09-10T07:23:18.751Z,16.27
2022-09-10T07:24:18.713Z,16.22
2022-09-10T07:25:18.717Z,16.25
2022-09-10T07:26:18.674Z,16.27
2022-09-10T07:27:18.651Z,16.27
2022-09-10T07:28:18.657Z,16.23
2022-09-10T07:29:18.617Z,16.22
2022-09-10T07:30:18.595Z,16.23
2022-09-10T07:31:18.985Z,16.30
2022-09-10T07:32:18.556Z,16.15
2022-09-10T07:33:18.937Z,16.27
2022-09-10T07:34:18.641Z,16.23
2022-09-10T07:35:18.821Z,16.25
2022-09-10T07:36:18.507Z,16.34
2022-09-10T07:37:18.459Z,16.33
2022-09-10T07:38:18.452Z,16.30
2022-09-10T07:39:21.295Z,16.38
2022-09-10T07:40:18.412Z,16.38
2022-09-10T07:41:18.386Z,16.34
2022-09-10T07:42:18.389Z,16.48
2022-09-10T07:43:18.331Z,16.37
2022-09-10T07:44:18.312Z,16.42
2022-09-10T07:45:18.297Z,16.48
2022-09-10T07:46:18.285Z,16.62
2022-09-10T07:47:18.251Z,16.55
2022-09-10T07:48:18.252Z,16.62
2022-09-10T07:49:18.228Z,16.68
2022-09-10T07:50:18.208Z,16.75
2022-09-10T07:51:18.173Z,16.83
2022-09-10T07:52:18.167Z,16.89
2022-09-10T07:53:18.162Z,16.85
2022-09-10T07:54:18.113Z,16.89
2022-09-10T07:55:18.106Z,16.96
2022-09-10T07:56:18.064Z,16.95
2022-09-10T07:57:18.047Z,16.86
2022-09-10T07:58:18.106Z,16.85
2022-09-10T07:59:18.041Z,16.86
2022-09-10T08:00:17.984Z,16.83
2022-09-10T08:01:18.015Z,16.90
2022-09-10T08:02:18.016Z,16.96
2022-09-10T08:03:17.934Z,16.86
2022-09-10T08:04:17.913Z,16.90
2022-09-10T08:05:17.893Z,16.81
2022-09-10T08:06:17.881Z,16.93
2022-09-10T08:07:17.854Z,16.95
2022-09-10T08:08:17.835Z,17.06
2022-09-10T08:09:17.817Z,17.06
2022-09-10T08:10:17.802Z,17.06
2022-09-10T08:11:17.780Z,17.06
2022-09-10T08:12:17.762Z,17.18
2022-09-10T08:13:17.745Z,17.29
2022-09-10T08:14:17.758Z,17.41
2022-09-10T08:15:17.705Z,17.36
2022-09-10T08:16:17.796Z,17.53
2022-09-10T08:17:17.662Z,17.47
2022-09-10T08:18:17.646Z,17.51
2022-09-10T08:19:17.626Z,17.54
2022-09-10T08:20:17.615Z,17.50
2022-09-10T08:21:17.594Z,17.50
2022-09-10T08:22:17.573Z,17.44
2022-09-10T08:23:17.557Z,17.55
2022-09-10T08:24:17.529Z,17.69
2022-09-10T08:25:17.516Z,17.50
2022-09-10T08:26:17.495Z,17.62
2022-09-10T08:27:17.487Z,17.63
2022-09-10T08:28:17.460Z,17.63
2022-09-10T08:29:17.471Z,17.64
2022-09-10T08:30:17.448Z,17.66
2022-09-10T08:31:17.529Z,17.82
2022-09-10T08:32:17.383Z,17.81
2022-09-10T08:33:17.370Z,17.76
2022-09-10T08:34:17.366Z,17.76
2022-09-10T08:35:17.333Z,17.81
2022-09-10T08:36:17.310Z,17.76
2022-09-10T08:37:17.296Z,17.89
2022-09-10T08:38:17.276Z,17.88
2022-09-10T08:39:17.258Z,17.79
2022-09-10T08:40:17.237Z,17.94
2022-09-10T08:41:17.223Z,17.97
2022-09-10T08:42:17.199Z,18.00
2022-09-10T08:43:17.187Z,18.24
2022-09-10T08:44:17.167Z,18.76
2022-09-10T08:45:17.155Z,19.36
2022-09-10T08:46:17.172Z,20.05
2022-09-10T08:47:17.143Z,20.13
2022-09-10T08:48:17.102Z,20.12
2022-09-10T08:49:17.108Z,20.41
2022-09-10T08:50:17.060Z,20.30
2022-09-10T08:51:17.066Z,20.53
2022-09-10T08:52:17.030Z,20.72
2022-09-10T08:53:17.039Z,20.69
2022-09-10T08:54:16.997Z,20.90
2022-09-10T08:55:16.985Z,20.98
2022-09-10T08:56:16.962Z,21.11
2022-09-10T08:57:16.950Z,20.76
2022-09-10T08:58:16.952Z,20.47
2022-09-10T08:59:16.925Z,19.87
2022-09-10T09:00:16.909Z,19.70
2022-09-10T09:01:16.933Z,19.69
2022-09-10T09:02:37.786Z,19.72
2022-09-10T09:03:16.900Z,19.66
2022-09-10T09:04:16.849Z,19.61
2022-09-10T09:05:16.826Z,19.38
2022-09-10T09:06:16.808Z,19.21
2022-09-10T09:07:16.795Z,19.25
2022-09-10T09:08:16.775Z,19.17
2022-09-10T09:09:16.764Z,19.02
2022-09-10T09:10:16.746Z,19.01
2022-09-10T09:11:16.734Z,18.79
2022-09-10T09:12:16.706Z,18.74
2022-09-10T09:13:16.703Z,18.80
2022-09-10T09:14:16.689Z,18.70
2022-09-10T09:15:16.659Z,18.65
2022-09-10T09:16:16.647Z,18.57
2022-09-10T09:17:16.651Z,18.43
2022-09-10T09:18:17.493Z,18.52
2022-09-10T09:19:16.596Z,18.37
2022-09-10T09:20:16.581Z,18.37
2022-09-10T09:21:16.563Z,18.46
2022-09-10T09:22:16.553Z,18.44
2022-09-10T09:23:16.532Z,18.43
2022-09-10T09:24:16.513Z,18.36
2022-09-10T09:25:16.495Z,18.43
2022-09-10T09:26:16.479Z,18.57
2022-09-10T09:27:16.463Z,18.58
2022-09-10T09:28:16.457Z,18.58
2022-09-10T09:29:16.427Z,18.62
2022-09-10T09:30:16.418Z,18.58
2022-09-10T09:31:16.412Z,18.54
2022-09-10T09:32:16.387Z,18.46
2022-09-10T09:33:16.384Z,18.42
2022-09-10T09:34:16.344Z,18.58
2022-09-10T09:35:16.323Z,18.76
2022-09-10T09:36:16.313Z,18.94
2022-09-10T09:37:16.295Z,19.11
2022-09-10T09:38:16.283Z,19.23
2022-09-10T09:39:16.265Z,19.24
2022-09-10T09:40:16.240Z,19.25
2022-09-10T09:41:16.222Z,19.25
2022-09-10T09:42:16.205Z,19.47
2022-09-10T09:43:16.194Z,19.46
2022-09-10T09:44:16.175Z,19.46
2022-09-10T09:45:16.162Z,19.38
2022-09-10T09:46:16.138Z,19.35
2022-09-10T09:47:16.132Z,19.46
2022-09-10T09:48:16.118Z,19.54
2022-09-10T09:49:16.089Z,19.40
2022-09-10T09:50:16.072Z,19.40
2022-09-10T09:51:16.087Z,19.51
2022-09-10T09:52:16.039Z,19.65
2022-09-10T09:53:16.027Z,19.72
2022-09-10T09:55:16.206Z,20.25
2022-09-10T09:56:15.986Z,20.46
2022-09-10T09:57:15.957Z,20.28
2022-09-10T09:58:15.943Z,20.16
2022-09-10T09:59:15.926Z,20.02
2022-09-10T10:00:15.925Z,19.87
2022-09-10T10:01:15.954Z,19.87
2022-09-10T10:02:15.964Z,19.86
2022-09-10T10:03:15.899Z,19.87
2022-09-10T10:04:15.853Z,19.78
2022-09-10T10:05:15.834Z,19.84
2022-09-10T10:06:15.825Z,19.88
2022-09-10T10:07:15.808Z,19.78
2022-09-10T10:08:15.786Z,19.63
2022-09-10T10:09:15.791Z,19.68
2022-09-10T10:10:15.783Z,19.60
2022-09-10T10:11:15.741Z,19.55
2022-09-10T10:12:15.725Z,19.58
2022-09-10T10:13:15.707Z,19.66
2022-09-10T10:14:15.696Z,19.80
2022-09-10T10:15:15.698Z,19.70
2022-09-10T10:16:15.724Z,19.65
2022-09-10T10:17:15.647Z,19.68
2022-09-10T10:18:15.628Z,19.75
2022-09-10T10:19:15.613Z,19.69
2022-09-10T10:20:15.599Z,19.46
2022-09-10T10:21:15.574Z,19.48
2022-09-10T10:22:15.571Z,19.20
2022-09-10T10:23:15.554Z,19.11
2022-09-10T10:24:15.532Z,19.10
2022-09-10T10:25:15.521Z,18.87
2022-09-10T10:26:15.582Z,18.70
2022-09-10T10:27:15.480Z,18.64
2022-09-10T10:28:15.461Z,18.47
2022-09-10T10:29:15.450Z,18.62
2022-09-10T10:30:15.438Z,18.50
2022-09-10T10:31:15.499Z,18.62
2022-09-10T10:32:15.397Z,18.61
2022-09-10T10:33:15.386Z,18.64
2022-09-10T10:34:15.367Z,18.64
2022-09-10T10:35:15.343Z,18.73
2022-09-10T10:36:15.339Z,18.86
2022-09-10T10:37:15.311Z,19.01
2022-09-10T10:38:15.296Z,18.94
2022-09-10T10:39:15.283Z,19.14
2022-09-10T10:40:15.317Z,19.31
2022-09-10T10:41:15.255Z,19.35
2022-09-10T10:42:15.231Z,19.54
2022-09-10T10:43:15.240Z,19.63
2022-09-10T10:44:15.203Z,19.65
2022-09-10T10:45:15.187Z,19.73
2022-09-10T10:46:15.193Z,19.83
2022-09-10T10:47:15.150Z,19.73
2022-09-10T10:48:15.137Z,19.76
2022-09-10T10:49:15.110Z,19.73
2022-09-10T10:50:15.098Z,19.69
2022-09-10T10:51:15.084Z,19.70
2022-09-10T10:52:15.079Z,19.55
2022-09-10T10:53:15.061Z,19.42
2022-09-10T10:54:15.030Z,19.42
2022-09-10T10:55:15.029Z,19.46
2022-09-10T10:56:15.018Z,19.57
2022-09-10T10:57:15.030Z,19.50
2022-09-10T10:58:14.966Z,19.55
2022-09-10T10:59:14.950Z,19.50
2022-09-10T11:00:14.942Z,19.53
2022-09-10T11:01:14.932Z,19.63
2022-09-10T11:02:15.050Z,19.66
2022-09-10T11:03:14.889Z,19.51
2022-09-10T11:04:14.871Z,19.54
2022-09-10T11:05:14.871Z,19.57
2022-09-10T11:06:14.846Z,19.65
2022-09-10T11:07:14.836Z,19.65
2022-09-10T11:08:14.807Z,19.32
2022-09-10T11:09:14.790Z,19.33
2022-09-10T11:10:14.778Z,19.17
2022-09-10T11:11:14.766Z,19.24
2022-09-10T11:12:14.742Z,19.11
2022-09-10T11:13:14.726Z,19.18
2022-09-10T11:14:14.719Z,19.25
2022-09-10T11:15:14.712Z,19.47
2022-09-10T11:16:14.705Z,19.43
2022-09-10T11:17:14.662Z,19.50
2022-09-10T11:18:14.643Z,19.51
2022-09-10T11:19:14.631Z,19.40
2022-09-10T11:20:28.334Z,19.28
2022-09-10T11:21:14.614Z,19.25
2022-09-10T11:22:14.620Z,19.18
2022-09-10T11:23:14.565Z,19.20
2022-09-10T11:24:17.358Z,19.18
2022-09-10T11:25:14.558Z,19.02
2022-09-10T11:26:14.520Z,18.94
2022-09-10T11:27:14.500Z,18.92
2022-09-10T11:28:14.534Z,19.11
2022-09-10T11:29:14.471Z,18.98
2022-09-10T11:30:14.457Z,18.92
2022-09-10T11:31:14.466Z,19.10
2022-09-10T11:32:14.424Z,18.97
2022-09-10T11:33:14.405Z,19.05
2022-09-10T11:34:14.387Z,18.82
2022-09-10T11:35:14.373Z,18.76
2022-09-10T11:36:14.351Z,18.54
2022-09-10T11:37:14.345Z,18.49
2022-09-10T11:38:14.345Z,18.72
2022-09-10T11:39:14.305Z,18.84
2022-09-10T11:40:14.327Z,18.90
2022-09-10T11:41:14.272Z,18.82
2022-09-10T11:42:14.254Z,18.87
2022-09-10T11:43:14.238Z,18.73
2022-09-10T11:44:14.215Z,18.77
2022-09-10T11:45:14.220Z,18.68
2022-09-10T11:46:14.229Z,18.74
2022-09-10T11:47:14.182Z,18.70
2022-09-10T11:48:14.153Z,18.73
2022-09-10T11:49:14.137Z,18.84
2022-09-10T11:50:14.141Z,18.83
2022-09-10T11:51:14.099Z,18.95
2022-09-10T11:52:14.104Z,19.06
2022-09-10T11:53:14.069Z,19.20
2022-09-10T11:54:14.049Z,19.53
2022-09-10T11:55:14.031Z,19.66
2022-09-10T11:56:14.018Z,19.68
2022-09-10T11:57:14.010Z,19.76
2022-09-10T11:58:13.986Z,19.65
2022-09-10T11:59:14.080Z,19.55
2022-09-10T12:00:13.965Z,19.53
2022-09-10T12:01:13.938Z,19.55
2022-09-10T12:02:13.963Z,19.63
2022-09-10T12:03:14.011Z,19.42
2022-09-10T12:04:13.896Z,19.46
2022-09-10T12:05:13.872Z,19.65
2022-09-10T12:06:13.872Z,19.70
2022-09-10T12:07:13.840Z,19.75
2022-09-10T12:08:13.827Z,19.73
2022-09-10T12:09:13.811Z,19.78
2022-09-10T12:10:14.619Z,19.70
2022-09-10T12:11:13.777Z,19.88
2022-09-10T12:12:13.774Z,19.73
2022-09-10T12:13:13.745Z,19.86
2022-09-10T12:14:13.731Z,19.93
2022-09-10T12:15:13.711Z,19.65
2022-09-10T12:16:13.774Z,19.70
2022-09-10T12:17:13.683Z,19.76
2022-09-10T12:18:13.665Z,19.66
2022-09-10T12:19:13.654Z,19.73
2022-09-10T12:20:13.646Z,19.61
2022-09-10T12:21:13.624Z,19.50
2022-09-10T12:22:13.615Z,19.46
2022-09-10T12:23:13.602Z,19.61
2022-09-10T12:24:13.581Z,19.72
2022-09-10T12:25:13.552Z,19.73
2022-09-10T12:26:13.545Z,19.83
2022-09-10T12:27:13.582Z,19.91
2022-09-10T12:28:13.509Z,20.00
2022-09-10T12:29:13.489Z,20.20
2022-09-10T12:30:13.487Z,20.10
2022-09-10T12:31:13.539Z,19.91
2022-09-10T12:32:13.443Z,19.94
2022-09-10T12:33:13.450Z,19.98
2022-09-10T12:34:13.416Z,20.13
2022-09-10T12:35:13.397Z,20.05
2022-09-10T12:36:13.398Z,20.00
2022-09-10T12:37:13.369Z,19.97
2022-09-10T12:38:13.358Z,20.20
2022-09-10T12:39:13.338Z,20.03
2022-09-10T12:40:13.444Z,19.90
2022-09-10T12:41:13.309Z,19.63
2022-09-10T12:42:13.299Z,19.33
2022-09-10T12:43:13.288Z,19.39
2022-09-10T12:44:13.268Z,19.38
2022-09-10T12:45:13.254Z,19.36
2022-09-10T12:46:13.254Z,19.24
2022-09-10T12:47:13.222Z,19.31
2022-09-10T12:48:13.202Z,19.47
2022-09-10T12:49:13.195Z,19.55
2022-09-10T12:50:13.173Z,19.53
2022-09-10T12:51:13.164Z,19.65
2022-09-10T12:52:13.144Z,19.95
2022-09-10T12:53:13.122Z,20.08
2022-09-10T12:54:13.121Z,20.25
2022-09-10T12:55:13.093Z,20.74
2022-09-10T12:56:15.666Z,20.33